createdAt,value
2023-03-26T00:00:13.250Z,19.3
2023-03-26T00:10:12.261Z,19.2
2023-03-26T00:20:12.184Z,19.3
2023-03-26T00:30:11.607Z,19.2
2023-03-26T00:40:11.480Z,19.2
2023-03-26T00:50:12.217Z,19.2
2023-03-26T01:00:12.428Z,19.1
2023-03-26T01:10:12.582Z,18.9
2023-03-26T01:20:13.415Z,19
2023-03-26T01:30:14.302Z,19
2023-03-26T01:40:14.987Z,18.9
2023-03-26T01:50:14.304Z,18.9
2023-03-26T02:00:14.964Z,19.3
2023-03-26T02:10:15.036Z,18.8
2023-03-26T02:20:14.800Z,18.9
2023-03-26T02:30:16.074Z,19.1
2023-03-26T02:40:14.967Z,18.8
2023-03-26T02:50:14.528Z,18.8
2023-03-26T03:10:07.824Z,18.8
2023-03-26T03:20:07.706Z,19
2023-03-26T03:30:08.065Z,18.6
2023-03-26T03:40:07.613Z,18.6
2023-03-26T03:50:07.552Z,18.8
2023-03-26T04:00:08.150Z,18.8
2023-03-26T04:10:09.728Z,18.6
2023-03-26T04:20:10.768Z,18.6
2023-03-26T04:30:11.946Z,18.6
2023-03-26T04:40:13.645Z,18.6
2023-03-26T04:50:14.410Z,18.5
2023-03-26T05:00:14.900Z,18.4
2023-03-26T05:10:25.514Z,18.5
2023-03-26T05:20:40.316Z,19
2023-03-26T05:30:57.265Z,18.9
2023-03-26T05:41:13.364Z,19
2023-03-26T05:51:29.902Z,21
2023-03-26T06:01:46.136Z,17.8
2023-03-26T06:12:03.860Z,17.8
2023-03-26T06:22:21.642Z,18.2
2023-03-26T06:32:39.616Z,18.3
2023-03-26T06:43:06.571Z,19.1
2023-03-26T06:53:19.119Z,19.4
2023-03-26T07:03:39.548Z,19.9
2023-03-26T07:13:58.646Z,20.4
2023-03-26T07:24:17.920Z,20.8
2023-03-26T07:34:37.559Z,20.8
2023-03-26T07:44:57.071Z,21.9
2023-03-26T07:55:16.560Z,21.9
2023-03-26T08:05:35.922Z,22.3
2023-03-26T08:15:55.229Z,22.4
2023-03-26T08:26:14.531Z,22.8
2023-03-26T08:36:33.594Z,21.7
2023-03-26T08:46:50.706Z,21.9
2023-03-26T08:57:09.222Z,21.8
2023-03-26T09:10:26.808Z,21.3
2023-03-26T09:20:46.001Z,22.5
2023-03-26T09:31:04.749Z,22.2
2023-03-26T09:41:23.456Z,22.5
2023-03-26T09:51:42.393Z,22
2023-03-26T10:02:02.379Z,22.8
2023-03-26T10:12:23.291Z,22.8
2023-03-26T10:22:44.671Z,22.3
2023-03-26T10:33:05.506Z,22.4
2023-03-26T10:43:26.133Z,22.3
2023-03-26T10:53:47.417Z,22
2023-03-26T11:04:05.168Z,22.3
2023-03-26T11:14:32.110Z,22
2023-03-26T11:24:42.454Z,22.1
2023-03-26T11:35:01.018Z,22.3
2023-03-26T11:45:16.756Z,21.5
2023-03-26T11:55:29.190Z,21.8
2023-03-26T12:05:37.655Z,22.4
2023-03-26T12:15:40.836Z,22.1
2023-03-26T12:25:43.492Z,22.1
2023-03-26T12:35:45.916Z,22.1
2023-03-26T12:49:01.164Z,22.1
2023-03-26T12:59:03.184Z,22.1
2023-03-26T13:09:05.195Z,21.9
2023-03-26T13:19:07.402Z,22
2023-03-26T13:29:09.836Z,21.9
2023-03-26T13:39:11.753Z,22
2023-03-26T13:49:14.065Z,21.9
2023-03-26T13:59:16.003Z,21.8
2023-03-26T14:09:17.937Z,21.9
2023-03-26T14:19:20.106Z,21.8
2023-03-26T14:29:22.126Z,21.6
2023-03-26T14:39:22.660Z,21.4
2023-03-26T14:49:23.345Z,21.4
2023-03-26T14:59:24.871Z,21.2
2023-03-26T15:10:09.390Z,21.5
2023-03-26T15:20:10.959Z,21.3
2023-03-26T15:30:12.655Z,20.9
2023-03-26T15:40:12.502Z,20.8
2023-03-26T15:50:12.253Z,20.6
2023-03-26T16:00:11.431Z,20.6
2023-03-26T16:10:11.883Z,20.8
2023-03-26T16:20:12.500Z,20.8
2023-03-26T16:30:13.266Z,20.8
2023-03-26T16:40:14.107Z,20.8
2023-03-26T16:50:16.005Z,20.9
2023-03-26T17:00:17.065Z,20.6
2023-03-26T17:10:17.652Z,20.8
2023-03-26T17:20:17.579Z,20.6
2023-03-26T17:30:17.535Z,20.4
2023-03-26T17:40:17.114Z,20.4
2023-03-26T17:50:17.056Z,20.3
2023-03-26T18:00:17.102Z,20.3
2023-03-26T18:10:17.254Z,20.1
2023-03-26T18:20:16.890Z,20.2
2023-03-26T18:30:16.523Z,20.1
2023-03-26T18:40:16.068Z,19.9
2023-03-26T18:50:16.358Z,19.9
2023-03-26T19:00:16.395Z,19.9
2023-03-26T19:10:15.493Z,19.9
2023-03-26T19:20:14.846Z,19.9
2023-03-26T19:30:14.231Z,19.8
2023-03-26T19:40:14.124Z,19.7
2023-03-26T19:50:13.684Z,19.7
2023-03-26T20:00:13.308Z,19.8
2023-03-26T20:10:12.887Z,19.6
2023-03-26T20:20:12.853Z,19.6
2023-03-26T20:30:14.011Z,19.5
2023-03-26T20:40:11.997Z,19.4
2023-03-26T20:50:11.422Z,19.6
2023-03-26T21:10:10.665Z,19.3
2023-03-26T21:20:06.791Z,19.3
2023-03-26T21:30:06.803Z,19.4
2023-03-26T21:40:06.507Z,19.3
2023-03-26T21:50:06.075Z,19.3
2023-03-26T22:00:05.887Z,19.2
2023-03-26T22:10:06.804Z,19.2
2023-03-26T22:20:08.313Z,19.1
2023-03-26T22:30:08.702Z,19
2023-03-26T22:40:09.901Z,19.1
2023-03-26T22:50:10.877Z,19
2023-03-26T23:00:10.479Z,18.9
2023-03-26T23:10:10.256Z,19
2023-03-26T23:20:10.426Z,18.9
2023-03-26T23:30:10.553Z,18.9
2023-03-26T23:40:09.604Z,18.9
2023-03-26T23:50:09.253Z,18.9
